createdAt,value
2022-09-01T00:00:06.441Z,34.99
2022-09-01T00:06:48.555Z,35.03
2022-09-01T00:13:25.062Z,34.92
2022-09-01T00:20:01.064Z,34.57
2022-09-01T00:26:26.019Z,34.97
2022-09-01T00:32:53.956Z,35.15
2022-09-01T00:39:30.509Z,35.13
2022-09-01T00:46:23.021Z,35.06
2022-09-01T00:53:08.355Z,35.08
2022-09-01T00:59:43.042Z,35.14
2022-09-01T01:06:17.624Z,35.09
2022-09-01T01:12:53.122Z,35.16
2022-09-01T01:19:22.083Z,35.17
2022-09-01T01:26:11.418Z,35.21
2022-09-01T01:32:55.726Z,35.23
2022-09-01T01:39:30.862Z,35.2
2022-09-01T01:46:05.242Z,35.19
2022-09-01T01:52:37.981Z,35.14
2022-09-01T01:59:15.993Z,35.02
2022-09-01T02:06:08.792Z,35.11
2022-09-01T02:12:45.591Z,35.11
2022-09-01T02:19:24.399Z,35.09
2022-09-01T02:26:17.661Z,35.1
2022-09-01T02:32:57.082Z,35.01
2022-09-01T02:39:24.636Z,35.09
2022-09-01T02:46:08.349Z,35.05
2022-09-01T02:52:40.588Z,35.1
2022-09-01T02:59:09.018Z,35.04
2022-09-01T03:05:45.023Z,34.98
2022-09-01T03:12:43.109Z,35.1
2022-09-01T03:19:20.118Z,35.04
2022-09-01T03:26:05.052Z,35.07
2022-09-01T03:32:50.272Z,34.99
2022-09-01T03:39:36.761Z,34.98
2022-09-01T03:46:35.809Z,35.11
2022-09-01T03:53:32.727Z,34.99
2022-09-01T04:00:20.613Z,34.89
2022-09-01T04:07:15.607Z,34.94
2022-09-01T04:14:18.144Z,34.86
2022-09-01T04:21:07.098Z,34.99
2022-09-01T04:27:40.181Z,35.01
2022-09-01T04:34:05.701Z,34.97
2022-09-01T04:40:43.126Z,35.01
2022-09-01T04:47:18.621Z,34.99
2022-09-01T04:53:45.420Z,35.01
2022-09-01T05:00:14.302Z,35.04
2022-09-01T05:06:56.523Z,35.05
2022-09-01T05:13:27.651Z,35.03
2022-09-01T05:20:14.628Z,35.09
2022-09-01T05:26:57.574Z,34.98
2022-09-01T05:33:26.659Z,34.97
2022-09-01T05:39:58.717Z,34.95
2022-09-01T05:46:35.356Z,34.9
2022-09-01T05:53:03.636Z,34.88
2022-09-01T05:59:40.188Z,34.88
2022-09-01T06:06:11.615Z,34.95
2022-09-01T06:12:41.080Z,34.88
2022-09-01T06:19:06.678Z,34.92
2022-09-01T06:25:37.249Z,34.83
2022-09-01T06:32:04.240Z,34.77
2022-09-01T06:38:33.155Z,34.82
2022-09-01T06:45:00.806Z,34.83
2022-09-01T06:51:33.323Z,34.82
2022-09-01T06:58:04.816Z,34.85
2022-09-01T07:04:36.464Z,34.7
2022-09-01T07:12:07.095Z,34.67
2022-09-01T07:17:49.350Z,34.7
2022-09-01T07:24:24.413Z,34.62
2022-09-01T07:44:44.683Z,34.64
2022-09-01T07:51:40.274Z,34.72
2022-09-01T07:58:02.807Z,34.74
2022-09-01T08:04:41.245Z,34.79
2022-09-01T08:11:10.341Z,34.81
2022-09-01T08:17:51.142Z,34.73
2022-09-01T08:24:24.696Z,34.92
2022-09-01T08:30:54.455Z,34.9
2022-09-01T08:37:26.259Z,34.86
2022-09-01T08:44:22.736Z,34.9
2022-09-01T08:51:25.559Z,34.89
2022-09-01T08:58:25.318Z,34.83
2022-09-01T09:05:27.238Z,34.85
2022-09-01T09:12:22.103Z,34.9
2022-09-01T09:19:40.253Z,34.72
2022-09-01T09:26:45.979Z,34.8
2022-09-01T09:33:53.627Z,34.75
2022-09-01T09:41:12.244Z,34.79
2022-09-01T09:47:44.586Z,34.76
2022-09-01T09:54:50.260Z,34.81
2022-09-01T10:01:49.749Z,34.76
2022-09-01T10:08:40.455Z,34.79
2022-09-01T10:15:35.726Z,34.81
2022-09-01T10:22:30.371Z,34.56
2022-09-01T10:29:47.018Z,34.62
2022-09-01T10:36:25.102Z,34.7
2022-09-01T10:43:18.331Z,34.5
2022-09-01T10:50:13.878Z,34.54
2022-09-01T10:57:30.575Z,34.39
2022-09-01T11:04:22.976Z,34.4
2022-09-01T11:11:14.263Z,34.67
2022-09-01T11:18:29.176Z,34.6
2022-09-01T11:25:40.076Z,34.55
2022-09-01T11:32:47.844Z,34.55
2022-09-01T11:39:35.583Z,34.67
2022-09-01T11:46:21.755Z,34.64
2022-09-01T11:53:09.866Z,34.54
2022-09-01T12:00:05.517Z,34.51
2022-09-01T12:06:56.581Z,34.56
2022-09-01T12:13:48.991Z,34.54
2022-09-01T12:20:51.658Z,34.47
2022-09-01T12:27:32.404Z,34.46
2022-09-01T12:34:08.840Z,34.44
2022-09-01T12:41:10.508Z,34.44
2022-09-01T12:48:06.873Z,34.49
2022-09-01T12:55:04.611Z,34.37
2022-09-01T13:02:09.114Z,34.24
2022-09-01T13:08:59.194Z,34.2
2022-09-01T13:15:28.500Z,34.37
2022-09-01T13:21:54.912Z,34.28
2022-09-01T13:28:20.947Z,34.2
2022-09-01T13:34:55.830Z,34.02
2022-09-01T13:41:33.431Z,34.13
2022-09-01T13:48:17.744Z,33.92
2022-09-01T13:54:45.127Z,34.03
2022-09-01T14:01:25.088Z,34.18
2022-09-01T14:07:57.367Z,34.09
2022-09-01T14:21:31.366Z,33.96
2022-09-01T14:28:16.784Z,34.05
2022-09-01T14:35:00.831Z,34.1
2022-09-01T14:41:33.877Z,34.28
2022-09-01T14:48:01.528Z,34.27
2022-09-01T14:54:34.955Z,34.46
2022-09-01T15:01:17.644Z,34.45
2022-09-01T15:07:49.591Z,34.61
2022-09-01T15:14:18.594Z,34.65
2022-09-01T15:20:45.176Z,34.35
2022-09-01T15:27:14.457Z,34.08
2022-09-01T15:33:38.957Z,34.3
2022-09-01T15:40:08.308Z,34.51
2022-09-01T15:46:41.119Z,34.33
2022-09-01T15:53:09.461Z,34.22
2022-09-01T15:59:57.389Z,34.41
2022-09-01T16:06:22.091Z,34.33
2022-09-01T16:12:51.607Z,34.37
2022-09-01T16:19:33.466Z,34.21
2022-09-01T16:26:35.535Z,34.28
2022-09-01T16:33:29.761Z,34.3
2022-09-01T16:40:27.666Z,34.2
2022-09-01T16:47:30.358Z,34.2
2022-09-01T16:54:44.759Z,33.95
2022-09-01T17:02:02.661Z,34.08
2022-09-01T17:09:22.173Z,33.68
2022-09-01T17:16:47.579Z,33.9
2022-09-01T17:24:00.795Z,34.12
2022-09-01T17:31:51.042Z,34.14
2022-09-01T17:38:45.713Z,34.27
2022-09-01T17:45:57.584Z,34.34
2022-09-01T17:53:11.270Z,34.37
2022-09-01T18:00:20.757Z,34.41
2022-09-01T18:07:32.733Z,34.48
2022-09-01T18:14:24.960Z,34.5
2022-09-01T18:21:30.289Z,34.58
2022-09-01T18:28:31.757Z,34.6
2022-09-01T18:35:27.918Z,34.81
2022-09-01T18:42:35.708Z,34.77
2022-09-01T18:49:28.225Z,34.83
2022-09-01T18:56:39.047Z,34.9
2022-09-01T19:03:49.625Z,34.94
2022-09-01T19:10:55.082Z,35.04
2022-09-01T19:17:59.726Z,35.08
2022-09-01T19:25:01.596Z,35.07
2022-09-01T19:31:59.083Z,35.08
2022-09-01T19:38:54.605Z,35.06
2022-09-01T19:45:51.148Z,35.09
2022-09-01T19:52:50.682Z,35.14
2022-09-01T19:59:59.095Z,35.03
2022-09-01T20:07:03.513Z,35.08
2022-09-01T20:14:19.787Z,34.9
2022-09-01T20:21:24.791Z,34.98
2022-09-01T20:28:32.996Z,34.98
2022-09-01T20:35:36.261Z,34.98
2022-09-01T20:42:45.635Z,34.94
2022-09-01T20:49:36.737Z,35.05
2022-09-01T20:56:39.566Z,35.1
2022-09-01T21:03:33.649Z,35
2022-09-01T21:10:44.611Z,35.14
2022-09-01T21:17:41.927Z,35.2
2022-09-01T21:24:43.137Z,35.15
2022-09-01T21:31:52.732Z,35.08
2022-09-01T21:38:46.711Z,35.07
2022-09-01T21:46:03.196Z,35.06
2022-09-01T21:53:14.161Z,35.03
2022-09-01T22:06:06.688Z,35.09
2022-09-01T22:12:40.035Z,35.13
2022-09-01T22:19:08.002Z,35.1
2022-09-01T22:25:46.256Z,35.07
2022-09-01T22:32:15.187Z,35.18
2022-09-01T22:39:04.853Z,34.88
2022-09-01T22:45:39.859Z,35.07
2022-09-01T22:52:14.284Z,35.17
2022-09-01T22:58:54.152Z,35.3
2022-09-01T23:05:26.132Z,35.32
2022-09-01T23:11:57.088Z,35.26
2022-09-01T23:18:22.639Z,35.25
2022-09-01T23:24:51.280Z,35.26
2022-09-01T23:31:26.268Z,35.34
2022-09-01T23:37:59.897Z,35.35
2022-09-01T23:44:27.191Z,35.31
2022-09-01T23:50:53.566Z,35.35
2022-09-01T23:57:20.021Z,35.35
